Time;durP1;ratioP1;P1;durP2;ratioP2;P2;SDS_P1;SDS_P2;PMS_P1;PMS_P2;Temp;Humidity;BMP_temperature;BMP_pressure;BME280_temperature;BME280_humidity;BME280_pressure;Samples;Min_cycle;Max_cycle;Signal;HPM_P1;HPM_P2
2024/01/24 00:00:19;;;;;;;41.78;19.42;;;;;;;1.37;60.82;101918.78;5064502;28;20044;-75
2024/01/24 00:02:48;;;;;;;41.50;20.98;;;;;;;1.27;60.51;101903.09;5067049;28;20119;-76
2024/01/24 00:05:13;;;;;;;40.33;20.45;;;;;;;1.33;60.06;101916.22;5067336;28;20028;-75
2024/01/24 00:07:39;;;;;;;30.83;18.83;;;;;;;1.24;59.76;101905.81;5067437;28;20021;-75
2024/01/24 00:10:05;;;;;;;38.88;21.95;;;;;;;1.21;60.02;101922.66;5064829;28;20055;-76
2024/01/24 00:12:31;;;;;;;37.97;20.20;;;;;;;0.77;59.97;101846.81;5066874;28;20036;-76
2024/01/24 00:14:57;;;;;;;43.58;21.60;;;;;;;1.15;60.19;101920.16;5068085;28;20518;-76
2024/01/24 00:17:22;;;;;;;42.08;21.40;;;;;;;1.07;60.19;101924.75;5069149;28;20090;-78
2024/01/24 00:19:48;;;;;;;39.00;21.25;;;;;;;1.00;59.92;101924.00;5069005;28;20101;-74
2024/01/24 00:22:14;;;;;;;46.90;21.63;;;;;;;0.86;60.58;101899.56;5071380;28;20402;-74
2024/01/24 00:24:40;;;;;;;45.30;22.00;;;;;;;0.98;60.47;101927.56;5071888;28;20031;-75
2024/01/24 00:27:05;;;;;;;45.05;22.70;;;;;;;0.86;60.89;101904.88;5071444;28;20029;-75
2024/01/24 00:29:31;;;;;;;46.05;21.52;;;;;;;1.03;60.87;101928.38;5075288;28;20036;-75
2024/01/24 00:31:56;;;;;;;42.50;23.10;;;;;;;1.03;60.41;101915.13;5080985;28;20036;-74
2024/01/24 00:34:22;;;;;;;38.28;20.92;;;;;;;0.99;60.69;101919.59;5073832;28;20025;-76
2024/01/24 00:36:49;;;;;;;39.30;21.33;;;;;;;0.89;60.70;101899.50;5070411;28;20507;-75
2024/01/24 00:39:15;;;;;;;40.70;21.65;;;;;;;0.95;60.87;101915.28;5070203;28;20041;-75
2024/01/24 00:41:41;;;;;;;35.60;20.40;;;;;;;0.94;60.67;101918.84;5070466;28;20032;-77
2024/01/24 00:44:07;;;;;;;40.55;22.13;;;;;;;0.98;60.90;101920.50;5070163;28;20074;-75
2024/01/24 00:46:33;;;;;;;39.00;22.67;;;;;;;0.96;60.94;101922.31;5070077;28;20032;-76
2024/01/24 00:48:58;;;;;;;54.85;23.17;;;;;;;1.02;60.69;101927.50;5070095;28;20024;-75
2024/01/24 00:51:24;;;;;;;38.63;21.05;;;;;;;0.93;61.10;101917.09;5069892;28;20060;-75
2024/01/24 00:53:53;;;;;;;42.88;22.83;;;;;;;0.93;61.44;101932.97;5070082;28;20040;-75
2024/01/24 00:56:20;;;;;;;42.30;22.25;;;;;;;0.93;61.61;101932.97;5069844;28;20060;-76
2024/01/24 00:58:46;;;;;;;39.35;21.48;;;;;;;0.69;61.27;101893.78;5070072;28;20093;-75
2024/01/24 01:01:11;;;;;;;39.17;22.15;;;;;;;0.95;62.00;101920.56;5069614;28;20040;-74
2024/01/24 01:03:38;;;;;;;48.08;23.25;;;;;;;0.95;61.47;101928.50;5069899;28;20024;-75
2024/01/24 01:06:04;;;;;;;41.00;21.20;;;;;;;0.93;61.52;101919.75;5069780;28;20080;-75
2024/01/24 01:08:30;;;;;;;44.67;23.15;;;;;;;0.97;61.49;101920.56;5067173;28;20036;-75
2024/01/24 01:10:56;;;;;;;43.95;23.27;;;;;;;1.01;61.57;101920.44;5069983;28;20032;-74
2024/01/24 01:13:21;;;;;;;41.00;21.55;;;;;;;0.93;61.55;101909.16;5070422;28;20494;-75
2024/01/24 01:15:47;;;;;;;53.67;24.10;;;;;;;1.05;61.27;101927.44;5070523;28;20024;-75
2024/01/24 01:18:12;;;;;;;46.42;23.55;;;;;;;0.95;61.30;101906.44;5069883;28;20039;-75
2024/01/24 01:20:38;;;;;;;43.78;23.02;;;;;;;0.95;60.98;101912.63;5079716;28;20103;-75
2024/01/24 01:23:04;;;;;;;41.80;22.27;;;;;;;0.97;61.24;101913.47;5073406;28;20104;-76
2024/01/24 01:25:29;;;;;;;41.45;23.08;;;;;;;0.97;61.58;101913.47;5068337;28;20027;-74
2024/01/24 01:27:55;;;;;;;43.20;23.42;;;;;;;1.03;61.47;101926.59;5069270;28;20039;-74
2024/01/24 01:30:23;;;;;;;50.90;23.73;;;;;;;0.78;61.75;101884.75;5069042;28;20029;-77
2024/01/24 01:32:49;;;;;;;38.25;21.20;;;;;;;1.00;61.69;101921.38;5068190;28;20326;-75
2024/01/24 01:35:14;;;;;;;45.47;24.13;;;;;;;1.08;61.43;101943.25;5068996;28;20127;-76
2024/01/24 01:37:40;;;;;;;43.50;24.00;;;;;;;1.06;61.24;101933.59;5069283;28;20039;-75
2024/01/24 01:40:06;;;;;;;46.42;26.08;;;;;;;1.00;61.20;101934.59;5069094;28;20414;-76
2024/01/24 01:42:32;;;;;;;57.55;23.75;;;;;;;1.04;61.23;101952.16;5069343;28;20020;-76
2024/01/24 01:44:58;;;;;;;50.55;24.15;;;;;;;0.91;61.35;101918.91;5068991;28;20158;-74
2024/01/24 01:47:24;;;;;;;45.85;23.88;;;;;;;1.11;61.39;101947.59;5069167;28;20090;-79
2024/01/24 01:49:50;;;;;;;46.90;25.15;;;;;;;0.82;61.44;101924.41;5066402;28;20393;-77
2024/01/24 01:52:16;;;;;;;47.67;26.30;;;;;;;0.84;61.85;101941.13;5068971;28;20017;-77
2024/01/24 01:54:43;;;;;;;51.63;26.27;;;;;;;0.68;61.64;101928.22;5069035;28;20035;-75
2024/01/24 01:57:11;;;;;;;48.58;27.40;;;;;;;0.27;62.16;101891.97;5068873;28;20024;-76
2024/01/24 01:59:40;;;;;;;45.15;25.25;;;;;;;0.51;62.55;101934.72;5069458;28;20036;-76
2024/01/24 02:02:06;;;;;;;45.72;25.70;;;;;;;0.40;62.95;101936.69;5069267;28;20032;-74
2024/01/24 02:04:32;;;;;;;48.30;24.98;;;;;;;0.30;63.34;101921.03;5069859;28;20488;-73
2024/01/24 02:06:58;;;;;;;44.25;24.15;;;;;;;0.03;63.64;101892.44;5069084;28;20031;-76
2024/01/24 02:09:24;;;;;;;56.85;26.90;;;;;;;0.08;64.21;101911.72;5072129;28;20372;-75
2024/01/24 02:11:50;;;;;;;44.30;25.40;;;;;;;0.14;64.66;101924.84;5078592;28;20108;-75
2024/01/24 02:14:15;;;;;;;44.13;25.70;;;;;;;-0.02;64.60;101935.69;5070828;28;20059;-74
2024/01/24 02:16:41;;;;;;;46.25;25.27;;;;;;;-0.17;64.88;101941.25;5068694;28;20479;-74
2024/01/24 02:19:06;;;;;;;47.05;26.50;;;;;;;-0.22;64.83;101951.03;5068733;28;20028;-75
2024/01/24 02:21:33;;;;;;;41.65;23.80;;;;;;;-0.50;65.36;101917.13;5068707;28;20477;-75
2024/01/24 02:24:00;;;;;;;37.53;21.77;;;;;;;-0.43;65.40;101946.06;5068152;28;20089;-75
2024/01/24 02:26:26;;;;;;;39.15;22.13;;;;;;;-0.53;65.63;101941.81;5068410;28;20031;-80
2024/01/24 02:28:51;;;;;;;40.45;21.25;;;;;;;-0.59;66.07;101949.84;5068453;28;20104;-77
2024/01/24 02:31:17;;;;;;;38.55;21.85;;;;;;;-0.71;65.84;101952.66;5068151;28;20108;-76
2024/01/24 02:33:43;;;;;;;33.13;20.23;;;;;;;-0.88;66.30;101922.94;5068018;28;20033;-75
2024/01/24 02:36:09;;;;;;;43.40;22.05;;;;;;;-0.84;66.78;101943.16;5067956;28;20106;-74
2024/01/24 02:38:35;;;;;;;39.95;20.88;;;;;;;-0.93;67.17;101949.44;5067936;28;20032;-75
2024/01/24 02:41:01;;;;;;;39.78;20.98;;;;;;;-1.06;67.07;101929.34;5066452;28;20037;-76
2024/01/24 02:43:27;;;;;;;42.33;19.65;;;;;;;-1.00;67.46;101941.59;5068766;28;20063;-76
2024/01/24 02:45:52;;;;;;;40.05;20.85;;;;;;;-1.07;67.72;101947.88;5069109;28;20020;-75
2024/01/24 02:48:18;;;;;;;33.15;18.25;;;;;;;-1.12;68.08;101956.72;5069145;28;20043;-77
2024/01/24 02:50:43;;;;;;;32.60;18.40;;;;;;;-1.24;68.69;101954.22;5070061;28;20040;-76
2024/01/24 02:53:09;;;;;;;35.63;18.73;;;;;;;-1.25;69.17;101962.13;5070539;28;20068;-74
2024/01/24 02:55:34;;;;;;;35.17;19.63;;;;;;;-1.28;69.35;101952.50;5069544;28;20024;-76
2024/01/24 02:58:00;;;;;;;37.88;19.90;;;;;;;-1.18;69.74;101972.63;5068928;28;20108;-75
2024/01/24 03:00:27;;;;;;;40.15;20.08;;;;;;;-1.25;70.00;101976.22;5079471;28;20038;-78
2024/01/24 03:02:53;;;;;;;34.70;19.73;;;;;;;-1.28;69.94;101965.69;5083803;28;20094;-78
2024/01/24 03:05:18;;;;;;;36.22;18.35;;;;;;;-1.39;70.38;101938.56;5071514;28;20028;-76
2024/01/24 03:07:44;;;;;;;34.75;18.75;;;;;;;-1.60;70.28;101896.59;5071296;28;20029;-76
2024/01/24 03:10:09;;;;;;;34.40;18.45;;;;;;;-1.18;70.75;101956.78;5070379;28;20029;-79
2024/01/24 03:12:35;;;;;;;35.30;18.45;;;;;;;-1.17;70.75;101950.63;5072397;28;20027;-77
2024/01/24 03:15:01;;;;;;;37.20;20.13;;;;;;;-0.95;70.50;101966.19;5071903;28;20077;-75
2024/01/24 03:17:26;;;;;;;34.42;18.75;;;;;;;-0.90;70.40;101954.66;5073073;28;20039;-76
2024/01/24 03:19:52;;;;;;;35.67;20.05;;;;;;;-0.99;70.40;101938.94;5070731;28;20060;-76
2024/01/24 03:22:18;;;;;;;36.13;20.63;;;;;;;-0.84;70.43;101961.63;5070201;28;20028;-77
2024/01/24 03:24:44;;;;;;;34.38;18.90;;;;;;;-0.77;70.00;101981.78;5069258;28;20032;-76
2024/01/24 03:27:09;;;;;;;35.42;19.63;;;;;;;-0.83;70.09;101972.19;5068885;28;20033;-75
2024/01/24 03:29:35;;;;;;;34.75;19.02;;;;;;;-0.80;69.78;101976.56;5067635;28;20036;-75
2024/01/24 03:32:01;;;;;;;30.83;17.63;;;;;;;-0.77;70.00;101971.22;5068383;28;20122;-78
2024/01/24 03:34:30;;;;;;;30.17;18.55;;;;;;;-0.84;70.59;101959.00;5067659;28;20025;-77
2024/01/24 03:36:56;;;;;;;29.20;18.23;;;;;;;-0.74;69.71;101963.25;5067813;28;20060;-76
2024/01/24 03:39:21;;;;;;;34.88;17.40;;;;;;;-0.71;70.24;101976.44;5067937;28;20029;-76
2024/01/24 03:41:47;;;;;;;36.53;19.70;;;;;;;-0.90;69.94;101954.66;5067889;28;20024;-76
2024/01/24 03:44:12;;;;;;;32.00;18.52;;;;;;;-0.70;69.92;101972.88;5068583;28;20028;-78
2024/01/24 03:46:38;;;;;;;34.38;20.65;;;;;;;-0.72;70.49;101975.53;5068385;28;20055;-76
2024/01/24 03:49:04;;;;;;;33.63;17.50;;;;;;;-0.74;70.17;101987.03;5068555;28;20123;-75
2024/01/24 03:51:30;;;;;;;30.75;17.92;;;;;;;-0.72;70.00;101985.22;5072202;28;20033;-75
2024/01/24 03:53:56;;;;;;;40.20;19.35;;;;;;;-0.70;70.12;101989.59;5075377;28;20466;-74
2024/01/24 03:56:22;;;;;;;38.10;19.60;;;;;;;-0.60;70.00;101990.34;5069585;28;20028;-76
2024/01/24 03:58:47;;;;;;;36.05;18.75;;;;;;;-0.60;70.15;101996.50;5071466;28;20123;-75
2024/01/24 04:01:13;;;;;;;30.90;17.80;;;;;;;-0.59;70.15;101998.28;5071177;28;20082;-76
2024/01/24 04:03:38;;;;;;;35.38;19.77;;;;;;;-0.49;69.90;101992.84;5068585;28;20047;-75
2024/01/24 04:06:04;;;;;;;38.33;18.73;;;;;;;-0.52;69.40;101988.47;5070968;28;20106;-78
2024/01/24 04:08:29;;;;;;;27.17;16.85;;;;;;;-0.53;69.00;101992.03;5069816;28;20562;-77
2024/01/24 04:10:55;;;;;;;34.22;19.73;;;;;;;-0.57;68.71;101990.31;5070970;28;20578;-77
2024/01/24 04:13:20;;;;;;;33.78;18.85;;;;;;;-0.71;68.99;101973.78;5070859;28;20071;-77
2024/01/24 04:15:46;;;;;;;37.25;19.23;;;;;;;-0.70;68.48;101976.38;5070874;28;20028;-77
2024/01/24 04:18:11;;;;;;;35.38;19.40;;;;;;;-0.80;68.51;101987.13;5070963;28;20028;-77
2024/01/24 04:20:37;;;;;;;35.88;17.83;;;;;;;-0.85;68.91;101981.00;5070605;28;20470;-77
2024/01/24 04:23:03;;;;;;;31.55;18.00;;;;;;;-0.82;68.70;101983.59;5071003;28;20032;-75
2024/01/24 04:25:29;;;;;;;29.35;17.40;;;;;;;-0.79;68.69;101983.56;5070466;28;20020;-76
2024/01/24 04:27:55;;;;;;;35.97;20.27;;;;;;;-0.75;68.96;101994.09;5071670;28;20040;-76
2024/01/24 04:30:21;;;;;;;42.15;19.42;;;;;;;-0.77;68.37;101968.59;5071452;28;20399;-75
2024/01/24 04:32:47;;;;;;;38.50;19.25;;;;;;;-0.70;68.81;101988.72;5070872;28;20091;-76
2024/01/24 04:35:12;;;;;;;33.42;18.70;;;;;;;-0.77;68.20;101976.50;5071218;28;20052;-74
2024/01/24 04:37:38;;;;;;;32.97;19.92;;;;;;;-0.60;67.74;102001.78;5071212;28;20063;-75
2024/01/24 04:40:04;;;;;;;32.58;18.75;;;;;;;-0.68;67.69;102000.16;5072935;28;20245;-77
2024/01/24 04:42:30;;;;;;;29.27;17.38;;;;;;;-0.64;67.49;102009.78;5078194;28;20033;-75
2024/01/24 04:44:56;;;;;;;34.95;19.67;;;;;;;-0.75;66.93;101988.81;5075471;28;20395;-75
2024/01/24 04:47:21;;;;;;;41.20;18.95;;;;;;;-0.79;67.19;102015.25;5070476;28;20380;-75
2024/01/24 04:49:47;;;;;;;37.53;20.33;;;;;;;-0.82;67.77;102025.84;5070484;28;20410;-76
2024/01/24 04:52:13;;;;;;;34.22;19.10;;;;;;;-0.89;67.57;102017.16;5070083;28;20020;-77
2024/01/24 04:54:41;;;;;;;35.63;19.15;;;;;;;-0.88;67.90;102010.09;5069904;28;20044;-76
2024/01/24 04:57:07;;;;;;;31.65;18.52;;;;;;;-0.86;68.36;102013.59;5069795;28;20415;-78
2024/01/24 04:59:32;;;;;;;43.10;21.17;;;;;;;-0.88;68.75;102021.53;5069543;28;20021;-76
2024/01/24 05:01:58;;;;;;;46.58;20.05;;;;;;;-1.02;68.92;102010.28;5070683;28;20546;-76
2024/01/24 05:04:23;;;;;;;56.78;20.75;;;;;;;-1.05;69.08;101997.13;5070069;28;20032;-74
2024/01/24 05:06:49;;;;;;;39.75;20.23;;;;;;;-0.79;69.21;102025.81;5069762;28;20025;-74
2024/01/24 05:09:15;;;;;;;40.22;20.80;;;;;;;-0.78;69.04;102027.56;5069481;28;20028;-76
2024/01/24 05:11:41;;;;;;;38.92;20.95;;;;;;;-0.85;69.18;102031.19;5069763;28;20031;-78
2024/01/24 05:14:07;;;;;;;42.08;21.67;;;;;;;-0.85;69.57;102039.97;5070307;28;20039;-81
2024/01/24 05:16:32;;;;;;;44.90;22.88;;;;;;;-1.02;69.93;102041.06;5070957;28;20025;-78
2024/01/24 05:18:58;;;;;;;36.65;19.58;;;;;;;-0.92;70.02;102024.25;5070314;28;20408;-75
2024/01/24 05:21:24;;;;;;;48.70;23.60;;;;;;;-0.92;70.02;102029.53;5069617;28;20025;-74
2024/01/24 05:23:51;;;;;;;42.80;21.55;;;;;;;-0.74;70.80;102048.66;5070831;28;20103;-77
2024/01/24 05:26:17;;;;;;;34.05;20.08;;;;;;;-0.84;69.77;102046.13;5071435;28;20024;-75
2024/01/24 05:28:43;;;;;;;37.67;21.20;;;;;;;-0.73;70.02;102057.44;5071044;28;20417;-79
2024/01/24 05:31:08;;;;;;;43.95;20.95;;;;;;;-0.74;70.27;102047.78;5087392;28;20089;-78
2024/01/24 05:33:34;;;;;;;44.08;21.33;;;;;;;-0.62;70.35;102056.44;5088718;28;20044;-77
2024/01/24 05:36:00;;;;;;;43.60;22.42;;;;;;;-0.58;70.38;102054.59;5069301;28;20064;-75
2024/01/24 05:38:27;;;;;;;42.22;21.30;;;;;;;-0.53;70.34;102044.00;5069838;28;20050;-81
2024/01/24 05:40:53;;;;;;;57.75;24.30;;;;;;;-0.60;70.54;102008.84;5069681;28;20063;-76
2024/01/24 05:43:18;;;;;;;37.60;20.23;;;;;;;-0.38;70.10;102042.03;5069677;28;20044;-75
2024/01/24 05:45:44;;;;;;;35.35;20.15;;;;;;;-0.41;69.77;102018.28;5069421;28;20039;-79
2024/01/24 05:48:10;;;;;;;40.88;21.10;;;;;;;-0.41;69.77;102015.63;5069284;28;20546;-77
2024/01/24 05:50:35;;;;;;;36.13;19.45;;;;;;;-0.62;68.91;102002.72;5068746;28;20032;-76
2024/01/24 05:53:00;;;;;;;43.38;21.75;;;;;;;-0.69;69.00;102001.03;5068724;28;20119;-78
2024/01/24 05:55:26;;;;;;;35.92;20.83;;;;;;;-0.55;69.02;102004.34;5068827;28;20438;-77
2024/01/24 05:57:52;;;;;;;45.90;21.65;;;;;;;-0.36;69.59;102016.44;5084325;28;20456;-78
2024/01/24 06:00:17;;;;;;;47.60;21.88;;;;;;;-0.42;69.65;102016.50;5068269;28;20033;-77
2024/01/24 06:02:43;;;;;;;44.20;23.67;;;;;;;-0.23;69.18;102033.00;5068639;28;20037;-77
2024/01/24 06:05:09;;;;;;;46.17;27.45;;;;;;;-0.28;69.54;102030.44;5068549;28;20048;-75
2024/01/24 06:07:35;;;;;;;50.40;24.08;;;;;;;-0.20;69.50;102022.38;5065885;28;20043;-76
2024/01/24 06:10:00;;;;;;;49.40;23.85;;;;;;;-0.06;69.80;102023.03;5068606;28;20384;-76
2024/01/24 06:12:27;;;;;;;50.75;25.23;;;;;;;0.03;69.62;102014.09;5068656;28;20020;-76
2024/01/24 06:14:55;;;;;;;45.10;26.45;;;;;;;0.09;69.37;101996.34;5067121;28;20337;-74
2024/01/24 06:17:22;;;;;;;56.28;26.63;;;;;;;0.22;69.04;102020.81;5067955;28;20025;-74
2024/01/24 06:19:50;;;;;;;51.47;26.02;;;;;;;0.26;68.58;102014.56;5072216;28;20021;-74
2024/01/24 06:22:16;;;;;;;52.35;26.52;;;;;;;0.31;68.64;102028.59;5084426;28;20036;-76
2024/01/24 06:24:41;;;;;;;61.25;29.27;;;;;;;0.30;67.66;102019.81;5070684;28;20035;-74
2024/01/24 06:27:08;;;;;;;63.90;31.08;;;;;;;0.06;68.13;101998.16;5067736;28;20032;-74
2024/01/24 06:29:34;;;;;;;92.30;36.70;;;;;;;0.27;67.88;102025.16;5067480;28;20021;-76
2024/01/24 06:32:03;;;;;;;56.63;31.13;;;;;;;0.40;68.09;102039.00;5068073;28;20166;-75
2024/01/24 06:34:28;;;;;;;65.13;31.27;;;;;;;0.54;68.49;102051.13;5066940;28;20040;-74
2024/01/24 06:36:54;;;;;;;77.20;30.08;;;;;;;0.63;68.23;102050.09;5067492;28;20028;-77
2024/01/24 06:39:19;;;;;;;74.00;34.17;;;;;;;0.70;67.69;102051.75;5067507;28;20458;-75
2024/01/24 06:41:45;;;;;;;81.20;38.55;;;;;;;0.67;67.67;102051.78;5067467;28;20438;-73
2024/01/24 06:44:10;;;;;;;101.03;43.33;;;;;;;0.62;67.52;102047.47;5067853;28;20028;-75
2024/01/24 06:46:43;;;;;;;89.97;40.25;;;;;;;0.61;67.29;102036.03;5067340;28;20399;-75
2024/01/24 06:49:12;;;;;;;75.55;35.38;;;;;;;0.79;66.96;102040.97;5067540;28;20044;-76
2024/01/24 06:51:38;;;;;;;64.35;30.75;;;;;;;0.85;66.97;102042.63;5067629;28;20028;-75
2024/01/24 06:54:04;;;;;;;55.40;27.08;;;;;;;0.83;66.92;102042.66;5067502;28;20488;-77
2024/01/24 06:56:30;;;;;;;40.95;21.42;;;;;;;0.85;66.97;102040.84;5067737;28;20489;-73
2024/01/24 06:58:56;;;;;;;36.85;18.42;;;;;;;0.57;67.02;101984.03;5067827;28;20032;-74
2024/01/24 07:01:21;;;;;;;43.85;22.52;;;;;;;0.77;67.11;102008.34;5067599;28;20124;-81
2024/01/24 07:03:47;;;;;;;43.13;22.70;;;;;;;0.97;67.47;102035.31;5065992;28;20165;-75
2024/01/24 07:06:13;;;;;;;49.85;25.75;;;;;;;1.06;67.30;102040.44;5068400;28;20428;-76
2024/01/24 07:08:42;;;;;;;53.90;26.77;;;;;;;1.10;67.40;102042.09;5072073;28;20020;-74
2024/01/24 07:11:09;;;;;;;60.33;29.95;;;;;;;1.10;67.17;102042.09;5075698;28;20159;-77
2024/01/24 07:13:34;;;;;;;52.38;25.88;;;;;;;1.10;66.69;102031.50;5069322;28;20044;-75
2024/01/24 07:16:03;;;;;;;56.97;27.98;;;;;;;1.25;66.52;102042.72;5067668;28;20457;-76
2024/01/24 07:18:29;;;;;;;56.08;28.38;;;;;;;0.85;66.43;101966.72;5067134;28;20408;-73
2024/01/24 07:20:54;;;;;;;63.60;30.02;;;;;;;1.31;66.50;102045.25;5067276;28;20028;-75
2024/01/24 07:23:20;;;;;;;57.35;25.40;;;;;;;1.32;66.01;102036.38;5067084;28;20090;-73
2024/01/24 07:25:45;;;;;;;44.55;23.85;;;;;;;1.24;65.96;102047.16;5067283;28;20085;-75
2024/01/24 07:28:11;;;;;;;47.28;23.80;;;;;;;1.19;66.58;102027.81;5067120;28;20056;-75
2024/01/24 07:30:37;;;;;;;47.08;24.25;;;;;;;1.42;66.47;102054.72;5068159;28;20028;-75
2024/01/24 07:33:04;;;;;;;42.03;23.65;;;;;;;1.42;66.32;102032.63;5071291;28;20384;-75
2024/01/24 07:35:30;;;;;;;42.22;22.33;;;;;;;1.54;66.10;102035.00;5071109;28;20131;-74
2024/01/24 07:37:56;;;;;;;40.28;22.73;;;;;;;1.62;66.68;102030.44;5071153;28;20111;-76
2024/01/24 07:40:21;;;;;;;56.00;25.25;;;;;;;1.51;66.04;102032.44;5071500;28;20029;-75
2024/01/24 07:42:47;;;;;;;44.85;21.80;;;;;;;1.26;66.07;101983.50;5071067;28;20395;-75
2024/01/24 07:45:13;;;;;;;45.53;22.55;;;;;;;1.66;66.30;102032.09;5071131;28;20035;-74
2024/01/24 07:47:38;;;;;;;41.85;21.75;;;;;;;1.71;66.20;102030.22;5071408;28;20540;-75
2024/01/24 07:50:04;;;;;;;37.42;21.42;;;;;;;1.76;66.45;102031.00;5071476;28;20078;-77
2024/01/24 07:52:30;;;;;;;34.78;19.73;;;;;;;1.69;66.58;102013.47;5052594;28;20063;-73
2024/01/24 07:54:55;;;;;;;46.03;22.83;;;;;;;1.80;66.89;102032.66;5071561;28;20028;-75
2024/01/24 07:57:21;;;;;;;40.15;21.58;;;;;;;1.87;66.74;102036.91;5073569;28;20028;-73
2024/01/24 07:59:46;;;;;;;39.35;22.45;;;;;;;1.93;66.72;102036.75;5076258;28;20206;-76
2024/01/24 08:02:13;;;;;;;45.05;21.73;;;;;;;2.08;66.94;102041.69;5055079;28;20051;-74
2024/01/24 08:04:39;;;;;;;39.15;21.50;;;;;;;2.22;66.82;102048.47;5068458;28;20062;-74
2024/01/24 08:07:04;;;;;;;40.63;21.33;;;;;;;2.25;66.52;102036.00;5068010;28;20037;-75
2024/01/24 08:09:30;;;;;;;50.05;24.10;;;;;;;2.29;66.51;102037.69;5067831;28;20036;-74
2024/01/24 08:11:55;;;;;;;46.30;24.38;;;;;;;2.36;66.30;102041.03;5067881;28;20036;-73
2024/01/24 08:14:21;;;;;;;46.42;24.60;;;;;;;2.43;66.29;102022.25;5067764;28;20758;-76
2024/01/24 08:17:05;;;;;;;55.45;25.65;;;;;;;2.58;66.18;102034.25;5051095;28;20035;-75
2024/01/24 08:19:32;;;;;;;54.05;30.35;;;;;;;2.43;66.03;102008.09;5067348;28;20068;-76
2024/01/24 08:21:58;;;;;;;66.75;30.38;;;;;;;2.70;66.00;102028.63;5051033;28;20044;-76
2024/01/24 08:24:23;;;;;;;60.47;29.27;;;;;;;2.77;65.95;102027.56;5067553;28;20036;-75
2024/01/24 08:26:50;;;;;;;69.53;26.13;;;;;;;2.88;65.52;102040.53;5067682;28;20607;-73
2024/01/24 08:29:15;;;;;;;56.65;26.50;;;;;;;2.84;64.81;102023.84;5067617;28;20036;-75
2024/01/24 08:31:41;;;;;;;53.72;24.15;;;;;;;3.00;64.61;102035.75;5069937;28;20048;-78
2024/01/24 08:34:07;;;;;;;51.55;25.55;;;;;;;3.18;64.76;102045.03;5069604;28;20028;-74
2024/01/24 08:36:33;;;;;;;48.35;26.08;;;;;;;3.19;64.22;102029.03;5069140;28;20130;-74
2024/01/24 08:38:58;;;;;;;64.90;26.58;;;;;;;3.26;63.99;102048.34;5070648;28;20101;-76
2024/01/24 08:41:24;;;;;;;57.47;23.95;;;;;;;3.38;64.14;102037.34;5070232;28;20385;-75
2024/01/24 08:43:50;;;;;;;50.75;27.27;;;;;;;3.54;64.07;102037.78;5070729;28;20415;-74
2024/01/24 08:46:15;;;;;;;55.45;27.48;;;;;;;3.58;63.80;102024.31;5072163;28;20032;-76
2024/01/24 08:48:41;;;;;;;51.25;25.38;;;;;;;3.76;63.85;102038.88;5078491;28;20111;-74
2024/01/24 08:51:06;;;;;;;39.95;25.48;;;;;;;3.82;63.48;102025.38;5073521;28;20121;-73
2024/01/24 08:53:32;;;;;;;46.22;24.25;;;;;;;3.99;63.47;102012.38;5070009;28;20017;-74
2024/01/24 08:55:57;;;;;;;49.50;24.55;;;;;;;4.17;63.02;102024.22;5069597;28;20035;-75
2024/01/24 08:58:23;;;;;;;37.35;24.40;;;;;;;4.21;62.58;102021.44;5069953;28;20545;-73
2024/01/24 09:00:48;;;;;;;53.08;23.88;;;;;;;4.39;62.95;102030.59;5070017;28;20020;-75
2024/01/24 09:03:14;;;;;;;49.15;26.23;;;;;;;4.50;62.36;102033.75;5070106;28;20082;-75
2024/01/24 09:05:41;;;;;;;47.95;26.17;;;;;;;4.40;62.33;101979.06;5070092;28;20090;-80
2024/01/24 09:08:07;;;;;;;44.42;27.75;;;;;;;4.81;62.12;102028.25;5069598;28;20577;-76
2024/01/24 09:10:33;;;;;;;49.00;28.13;;;;;;;4.81;61.65;102018.44;5069596;28;20505;-75
2024/01/24 09:12:58;;;;;;;51.92;27.02;;;;;;;4.63;61.03;101987.13;5069683;28;20112;-74
2024/01/24 09:15:24;;;;;;;57.03;27.48;;;;;;;4.90;61.25;102027.91;5069626;28;20032;-76
2024/01/24 09:17:50;;;;;;;70.20;28.40;;;;;;;4.97;61.03;102024.09;5070314;28;20090;-76
2024/01/24 09:20:16;;;;;;;69.85;29.77;;;;;;;5.02;61.47;102000.81;5068272;28;20043;-75
2024/01/24 09:22:41;;;;;;;52.63;28.20;;;;;;;5.10;61.03;101993.41;5069657;28;20116;-75
2024/01/24 09:25:07;;;;;;;50.63;27.65;;;;;;;5.30;60.84;102012.19;5068956;28;20488;-76
2024/01/24 09:27:33;;;;;;;45.08;27.00;;;;;;;5.40;60.82;102005.59;5069597;28;20369;-76
2024/01/24 09:29:58;;;;;;;48.35;28.13;;;;;;;5.43;60.47;101991.25;5070480;28;20028;-75
2024/01/24 09:32:24;;;;;;;52.50;27.48;;;;;;;5.56;60.13;101995.22;5068197;28;20466;-75
2024/01/24 09:34:49;;;;;;;60.38;29.02;;;;;;;5.56;60.10;101997.88;5069812;28;20044;-75
2024/01/24 09:37:15;;;;;;;59.38;30.75;;;;;;;5.47;59.73;101959.06;5079841;28;20039;-78
2024/01/24 09:39:40;;;;;;;63.85;32.53;;;;;;;5.73;59.95;101989.19;5072887;28;20063;-75
2024/01/24 09:42:19;;;;;;;70.80;31.98;;;;;;;5.84;59.80;101997.66;5069163;28;20052;-76
2024/01/24 09:44:48;;;;;;;70.20;32.67;;;;;;;5.78;59.82;101988.06;5068912;28;20422;-76
2024/01/24 09:47:16;;;;;;;63.50;33.97;;;;;;;5.89;59.59;101995.72;5069020;28;20042;-75
2024/01/24 09:49:45;;;;;;;68.32;34.25;;;;;;;6.03;59.50;101994.22;5069083;28;20031;-75
2024/01/24 09:52:12;;;;;;;68.53;34.90;;;;;;;5.98;59.79;101963.28;5068704;28;20773;-75
2024/01/24 09:54:38;;;;;;;75.53;32.75;;;;;;;6.13;59.63;101973.34;5068279;28;20028;-76
2024/01/24 09:57:06;;;;;;;61.33;30.60;;;;;;;6.24;59.42;101986.25;5068843;28;20036;-77
2024/01/24 09:59:32;;;;;;;77.05;35.97;;;;;;;6.17;59.25;101963.41;5068900;28;20129;-75
2024/01/24 10:01:58;;;;;;;69.28;33.40;;;;;;;6.21;59.37;101944.50;5068902;28;20120;-75
2024/01/24 10:04:24;;;;;;;66.70;35.88;;;;;;;6.51;59.15;101961.88;5068974;28;20030;-73
2024/01/24 10:06:52;;;;;;;76.03;34.00;;;;;;;6.55;58.66;101960.81;5068666;28;20036;-74
2024/01/24 10:09:19;;;;;;;77.90;35.28;;;;;;;6.62;58.28;101944.50;5068630;28;20055;-75
2024/01/24 10:11:44;;;;;;;80.05;36.92;;;;;;;6.67;58.20;101951.38;5068881;28;20036;-74
2024/01/24 10:14:12;;;;;;;101.47;35.15;;;;;;;6.80;57.92;101949.03;5068845;28;20028;-78
2024/01/24 10:16:40;;;;;;;73.18;35.45;;;;;;;6.86;58.07;101956.78;5069138;28;20024;-76
2024/01/24 10:19:06;;;;;;;73.18;32.97;;;;;;;6.74;57.11;101944.84;5069465;28;20035;-76
2024/01/24 10:21:32;;;;;;;69.68;33.83;;;;;;;6.74;57.63;101946.63;5069875;28;20033;-79
2024/01/24 10:23:59;;;;;;;80.18;32.38;;;;;;;6.85;57.48;101942.53;5069013;28;20024;-75
2024/01/24 10:26:25;;;;;;;68.03;35.55;;;;;;;6.68;57.83;101906.81;5071117;28;20245;-76
2024/01/24 10:28:53;;;;;;;55.15;29.65;;;;;;;6.77;57.82;101935.81;5076331;28;20025;-77
2024/01/24 10:31:19;;;;;;;52.08;30.30;;;;;;;6.80;58.07;101925.84;5078060;28;20050;-76
2024/01/24 10:33:53;;;;;;;59.70;29.65;;;;;;;6.92;58.36;101925.28;5070017;28;20032;-74
2024/01/24 10:36:19;;;;;;;53.83;31.55;;;;;;;6.85;57.92;101907.78;5066824;28;20064;-76
2024/01/24 10:38:48;;;;;;;60.80;29.30;;;;;;;7.03;57.89;101938.19;5068406;28;20020;-75
2024/01/24 10:41:16;;;;;;;57.63;29.17;;;;;;;7.01;58.31;101918.66;5068129;28;20080;-80
2024/01/24 10:43:50;;;;;;;71.13;28.58;;;;;;;7.03;58.14;101887.38;5067827;28;20024;-76
2024/01/24 10:46:18;;;;;;;76.50;28.00;;;;;;;7.22;58.43;101898.91;5065701;28;20039;-79
2024/01/24 10:48:44;;;;;;;62.60;27.05;;;;;;;7.30;58.29;101894.09;5067699;28;20024;-75
2024/01/24 10:51:10;;;;;;;56.80;27.92;;;;;;;7.36;58.25;101892.94;5067813;28;20558;-76
2024/01/24 10:53:36;;;;;;;63.03;27.60;;;;;;;7.36;57.53;101885.78;5067926;28;20035;-77
2024/01/24 10:56:03;;;;;;;58.05;26.52;;;;;;;7.40;57.99;101876.63;5066485;28;20484;-76
2024/01/24 10:58:30;;;;;;;52.95;27.25;;;;;;;7.45;58.30;101876.41;5067487;28;20451;-77
2024/01/24 11:00:55;;;;;;;57.88;27.88;;;;;;;7.41;57.81;101873.03;5067606;28;20067;-77
2024/01/24 11:03:22;;;;;;;65.85;27.42;;;;;;;7.46;58.01;101865.63;5067852;28;20892;-75
2024/01/24 11:05:54;;;;;;;55.53;28.63;;;;;;;7.55;58.03;101869.69;5068056;28;20078;-75
2024/01/24 11:08:31;;;;;;;54.92;27.38;;;;;;;7.72;58.09;101874.19;5069122;28;20035;-77